Latest Coastal Weather Observations for Port Macquarie Airport

IDN60701

Issued at 6:22 am EDT Sunday 1 March 2015 (issued every 10 minutes, with the page automatically refreshed every 10 minutes)

About coastal observations | Map of coastal stations | Coastal observations for NSW | Marine services | Other Formats
Station Details ID: 060139 Name: PORT MACQUARIE AIRPORT AWS Lat: -31.43 Lon: 152.87 Height: 4.2 m
Data from the previous 72 hours. | See also: Recent months at Port Macquarie Airport
Date/Time
EDT
Temp

°C
Wind Pressure Rain
since 9am
mm
Weather Cloud Vis
km
Sea
Height
m
Swell
Dir
 
Speed
knots
Gust
knots
hPa Trend Height
m
Period
s
Dir
01/06:00am 20.9 NNW 5 7 1008.1 - 0.0 - - 10 - - - -
01/05:30am 21.1 N 6 8 1007.7 - 0.0 - - 10 - - - -
01/05:00am 21.5 N 8 11 1007.8 - 0.0 - - 10 - - - -
01/04:30am 21.3 N 6 8 1007.9 - 0.0 - - 10 - - - -
01/04:00am 21.3 N 3 6 1008.1 - 0.0 - - 10 - - - -
01/03:30am 21.7 NNE 6 7 1008.4 - 0.0 - - 10 - - - -
01/03:00am 21.8 N 6 8 1008.8 - 0.0 - - 10 - - - -
01/02:30am 21.7 N 5 7 1008.9 - 0.0 - - 10 - - - -
01/02:00am 21.6 N 4 4 1009.2 - 0.0 - - 10 - - - -
01/01:30am 21.3 CALM 0 0 1009.6 - 0.0 - - 10 - - - -
01/01:00am 21.1 CALM 0 0 1010.1 - 0.0 - - 10 - - - -
01/12:30am 21.3 CALM 0 0 1010.4 - 0.0 - - 10 - - - -
01/12:00am 21.7 CALM 0 0 1010.6 - 0.0 - Mostly clear 10 - - - -
 
Date/Time
EDT
Temp

°C
Wind Pressure Rain
since 9am
mm
Weather Cloud Vis
km
Sea
Height
m
Swell
Dir
 
Speed
knots
Gust
knots
hPa Trend Height
m
Period
s
Dir
28/11:30pm 22.3 N 2 3 1010.7 - 0.0 - Partly cloudy 10 - - - -
28/11:00pm 22.4 N 3 4 1010.7 - 0.0 - - 10 - - - -
28/10:30pm 23.0 N 5 6 1010.7 - 0.0 - - 10 - - - -
28/10:00pm 23.5 N 6 7 1010.7 - 0.0 - - 10 - - - -
28/09:30pm 23.6 NNE 7 8 1010.7 - 0.0 - - 10 - - - -
28/09:00pm 23.8 NNE 4 5 1010.6 - 0.0 - Partly cloudy 10 - - - -
28/08:30pm 24.2 N 6 7 1010.2 - 0.0 - - 10 - - - -
28/08:00pm 24.6 N 8 10 1010.0 - 0.0 - - 10 - - - -
28/07:30pm 25.1 NNE 10 13 1009.2 - 0.0 - - 10 - - - -
28/07:00pm 25.5 NNE 11 15 1009.1 - 0.0 - - 10 - - - -
28/06:30pm 26.0 NNE 11 14 1008.8 - 0.0 - - 10 - - - -
28/06:00pm 26.1 NE 11 15 1008.6 - 0.0 - - 10 - - - -
28/05:30pm 26.4 NE 10 15 1008.8 - 0.0 - - 10 - - - -
28/05:00pm 26.7 NE 13 18 1008.6 - 0.0 - - 10 - - - -
28/04:30pm 26.6 NE 12 17 1008.6 - 0.0 - - 10 - - - -
28/04:00pm 26.6 NE 13 18 1008.7 - 0.0 - - 10 - - - -
28/03:30pm 27.3 NE 11 16 1008.7 - 0.0 - - 10 - - - -
28/03:00pm 27.7 NE 12 16 1008.9 - 0.0 - - 10 - - - -
28/02:30pm 28.0 NE 12 17 1009.1 - 0.0 - - 10 - - - -
28/02:00pm 27.2 NE 12 16 1009.5 - 0.0 - - 10 - - - -
28/01:30pm 27.5 ENE 12 16 1009.6 - 0.0 - - 10 - - - -
28/01:00pm 26.1 ENE 11 15 1010.1 - 0.0 - - 10 - - - -
28/12:30pm 25.6 NE 10 13 1010.5 - 0.0 - Partly cloudy 10 - - - -
28/12:00pm 26.0 ENE 9 13 1010.7 - 0.0 - - 10 - - - -
28/11:30am 26.3 ENE 7 10 1010.9 - 0.0 - - 10 - - - -
28/11:00am 26.0 ENE 6 8 1011.2 - 0.0 - - 10 - - - -
28/10:30am 26.0 NNE 6 7 1011.3 - 0.0 - - 10 - - - -
28/10:00am 23.9 NNE 5 6 1011.1 - 0.0 - - 10 - - - -
28/09:30am 23.3 NE 3 6 1011.1 - 0.0 - - 10 - - - -
28/09:00am 21.7 WNW 5 6 1011.3 - 0.0 - - 10 - - - -
28/08:30am 20.6 WNW 4 5 1011.1 - 0.0 - - 10 - - - -
28/08:00am 19.9 WNW 4 6 1011.1 - 0.0 - - 10 - - - -
28/07:30am 19.3 CALM 0 0 1010.7 - 0.0 - Partly cloudy 10 - - - -
28/07:29am 19.3 CALM 0 0 1010.7 - 0.0 - Partly cloudy 10 - - - -
28/07:28am 19.2 CALM 0 0 1010.7 - 0.0 - Partly cloudy 10 - - - -
28/07:03am 18.6 NW 3 4 1010.6 - 0.0 - Partly cloudy 0.8 - - - -
28/07:02am 18.6 NW 3 4 1010.6 - 0.0 - Partly cloudy 1 - - - -
28/07:00am 18.6 NW 3 4 1010.6 - 0.0 - Partly cloudy 2 - - - -
28/06:57am 18.5 NW 3 4 1010.6 - 0.0 - Partly cloudy 5 - - - -
28/06:30am 18.8 NNW 2 4 1010.2 - 0.0 - - 10 - - - -
28/06:00am 18.8 CALM 0 0 1009.8 - 0.0 - - 10 - - - -
28/05:38am 18.7 CALM 0 0 1009.5 - 0.0 - - 10 - - - -
28/05:30am 18.9 CALM 0 0 1009.4 - 0.0 - Partly cloudy 8 - - - -
28/05:27am 18.9 CALM 0 0 1009.4 - 0.0 - Partly cloudy 2 - - - -
28/05:26am 18.9 CALM 0 0 1009.4 - 0.0 - Partly cloudy 1 - - - -
28/05:00am 18.7 CALM 0 0 1009.0 - 0.0 - Partly cloudy 0.2 - - - -
28/04:49am 18.9 CALM 0 0 1009.0 - 0.0 - Partly cloudy 3 - - - -
28/04:48am 18.8 CALM 0 0 1008.9 - 0.0 - Partly cloudy 10 - - - -
28/04:30am 18.8 CALM 0 0 1009.0 - 0.0 - Partly cloudy 10 - - - -
28/04:09am 19.1 CALM 0 0 1009.1 - 0.0 - - 10 - - - -
28/04:00am 18.9 CALM 0 0 1009.3 - 0.0 - - 6 - - - -
28/03:42am 18.8 CALM 0 0 1009.4 - 0.0 - Partly cloudy 5 - - - -
28/03:41am 18.8 CALM 0 0 1009.4 - 0.0 - Partly cloudy 6 - - - -
28/03:30am 19.7 CALM 0 0 1009.5 - 0.0 - Partly cloudy 4 - - - -
28/03:14am 19.8 NW 1 4 1009.6 - 0.0 - Partly cloudy 1 - - - -
28/03:13am 19.7 NW 1 4 1009.6 - 0.0 - Partly cloudy 1 - - - -
28/03:00am 19.6 CALM 0 0 1009.8 - 0.0 - - 4 - - - -
28/02:54am 19.5 CALM 0 0 1009.8 - 0.0 - - 5 - - - -
28/02:30am 20.0 CALM 0 0 1009.9 - 0.0 - - 10 - - - -
28/02:00am 20.2 NW 1 3 1010.3 - 0.0 - - 10 - - - -
28/01:30am 20.1 CALM 0 3 1010.6 - 0.0 - - 10 - - - -
28/01:00am 20.4 CALM 0 0 1011.0 - 0.0 - - 10 - - - -
28/12:30am 20.5 CALM 0 0 1011.1 - 0.0 - Partly cloudy 10 - - - -
28/12:00am 20.8 CALM 0 0 1011.1 - 0.0 - Mostly clear 10 - - - -
 
Date/Time
EDT
Temp

°C
Wind Pressure Rain
since 9am
mm
Weather Cloud Vis
km
Sea
Height
m
Swell
Dir
 
Speed
knots
Gust
knots
hPa Trend Height
m
Period
s
Dir
27/11:30pm 20.7 CALM 0 0 1011.2 - 0.0 - - 10 - - - -
27/11:00pm 21.4 CALM 0 0 1011.1 - 0.0 - Partly cloudy 10 - - - -
27/10:30pm 21.5 CALM 0 0 1011.0 - 0.0 - - 10 - - - -
27/10:00pm 21.6 CALM 0 0 1011.1 - 0.0 - - 10 - - - -
27/09:30pm 22.7 CALM 0 0 1010.8 - 0.0 - Partly cloudy 10 - - - -
27/09:00pm 22.6 WNW 1 4 1010.5 - 0.0 - Cloudy 10 - - - -
27/08:30pm 22.3 CALM 0 0 1010.1 - 0.0 - - 10 - - - -
27/08:00pm 23.2 E 1 4 1009.6 - 0.0 - Partly cloudy 10 - - - -
27/07:30pm 23.6 ESE 4 6 1009.5 - 0.0 - Partly cloudy 10 - - - -
27/07:00pm 24.2 ESE 6 8 1009.2 - 0.0 - Partly cloudy 10 - - - -
27/06:30pm 24.8 E 6 8 1009.0 - 0.0 - Partly cloudy 10 - - - -
27/06:00pm 25.6 ESE 6 10 1008.7 - 0.0 - Mostly clear 10 - - - -
27/05:30pm 25.1 SE 8 11 1008.4 - 0.0 - Partly cloudy 10 - - - -
27/05:00pm 25.3 SE 8 11 1008.3 - 0.0 - Partly cloudy 10 - - - -
27/04:30pm 26.2 SSE 8 11 1008.1 - 0.0 - - 10 - - - -
27/04:00pm 26.6 SE 8 11 1007.7 - 0.0 - - 10 - - - -
27/03:30pm 26.6 SE 8 12 1007.8 - 0.0 - - 10 - - - -
27/03:00pm 26.2 SSE 9 14 1008.2 - 0.0 - Mostly clear 10 - - - -
27/02:30pm 26.7 SSE 10 15 1008.5 - 0.0 - Partly cloudy 10 - - - -
27/02:00pm 26.1 SE 10 12 1008.7 - 0.0 - Partly cloudy 10 - - - -
27/01:30pm 26.2 SSE 9 13 1008.9 - 0.0 - Partly cloudy 10 - - - -
27/01:00pm 26.2 E 7 11 1009.0 - 0.0 - Partly cloudy 10 - - - -
27/12:30pm 26.9 SSE 7 9 1009.4 - 0.0 - - 10 - - - -
27/12:00pm 25.9 S 7 9 1009.6 - 0.0 - Mostly cloudy 10 - - - -
27/11:30am 25.7 SE 6 9 1009.9 - 0.0 - Partly cloudy 10 - - - -
27/11:00am 24.3 S 8 11 1010.3 - 0.0 - Partly cloudy 10 - - - -
27/10:35am 24.7 SSW 9 12 1010.1 - 0.0 - Partly cloudy 10 - - - -
27/10:34am 24.8 S 9 12 1010.1 - 0.0 - Partly cloudy 10 - - - -
27/10:30am 23.8 SSW 9 13 1010.1 - 0.0 - Partly cloudy 10 - - - -
27/10:22am 23.8 SSW 9 13 1010.1 - 0.0 - Partly cloudy 10 - - - -
27/10:21am 24.0 SSW 9 13 1010.0 - 0.0 - Partly cloudy 10 - - - -
27/10:20am 24.0 SW 8 12 1010.0 - 0.0 - Partly cloudy 10 - - - -
27/10:19am 23.7 SW 8 12 1010.1 - 0.0 - Partly cloudy 10 - - - -
27/10:00am 23.3 SW 9 12 1010.0 - 0.0 - Partly cloudy 10 - - - -
27/09:30am 22.8 SSW 9 13 1009.8 - 0.0 - Partly cloudy 10 - - - -
27/09:24am 22.6 SSW 8 13 1009.7 - 0.0 - Partly cloudy 10 - - - -
27/09:23am 22.6 SSW 8 10 1009.7 - 0.0 - Partly cloudy 10 - - - -
27/09:00am 21.5 SSW 7 9 1009.5 - 5.0 - Mostly clear 10 - - - -
27/08:30am 20.7 SW 6 7 1009.3 - 5.0 - - 10 - - - -
27/08:00am 20.0 W 4 5 1009.0 - 5.0 - - 10 - - - -
27/07:30am 19.7 WSW 2 3 1008.8 - 5.0 - - 10 - - - -
27/07:00am 19.8 WSW 5 7 1008.2 - 5.0 - - 10 - - - -
27/06:54am 19.7 W 5 8 1008.0 - 5.0 - Partly cloudy 10 - - - -
27/06:53am 19.7 W 5 8 1008.0 - 5.0 - Partly cloudy 10 - - - -
27/06:42am 19.8 WSW 6 9 1007.9 - 5.0 - Partly cloudy 10 - - - -
27/06:30am 20.0 W 7 9 1007.8 - 5.0 - Cloudy 4 - - - -
27/06:00am 20.2 W 6 9 1007.7 - 5.0 - Cloudy 0.5 - - - -
27/05:30am 20.4 WNW 5 6 1007.5 - 5.0 - Cloudy 0.2 - - - -
27/05:00am 20.4 W 4 6 1007.3 - 5.0 - Cloudy 0.2 - - - -
27/04:46am 20.4 WNW 3 4 1007.1 - 5.0 - Partly cloudy 1 - - - -
27/04:45am 20.3 WNW 2 4 1007.1 - 5.0 - Partly cloudy 1 - - - -
27/04:30am 20.3 N 3 5 1006.8 - 5.0 - - 3 - - - -
27/04:00am 20.3 W 1 3 1006.5 - 4.8 - Partly cloudy 1 - - - -
27/03:30am 20.5 CALM 0 0 1006.7 - 4.8 - - 3 - - - -
27/03:18am 20.5 CALM 0 0 1006.6 - 4.8 - Partly cloudy 5 - - - -
27/03:13am 20.8 ENE 1 3 1006.7 - 4.8 - Partly cloudy 10 - - - -
27/03:09am 21.1 ENE 2 4 1006.7 - 4.8 - Partly cloudy 10 - - - -
27/03:08am 21.1 ENE 2 4 1006.7 - 4.8 - Partly cloudy 10 - - - -
27/03:00am 21.1 NE 2 4 1006.7 - 4.8 - Cloudy 5 - - - -
27/02:58am 21.1 NE 1 4 1006.8 - 4.8 - Partly cloudy 5 - - - -
27/02:52am 21.1 CALM 0 0 1006.9 - 4.8 - Partly cloudy 10 - - - -
27/02:51am 21.1 CALM 0 0 1006.9 - 4.8 - Partly cloudy 10 - - - -
27/02:30am 21.0 CALM 0 0 1007.2 - 4.8 - - 10 - - - -
27/02:00am 21.3 CALM 0 0 1007.7 - 4.8 - Partly cloudy 10 - - - -
27/01:30am 21.3 CALM 0 0 1008.3 - 4.8 - - 10 - - - -
27/01:00am 21.5 SW 3 4 1008.5 - 4.8 - Partly cloudy 10 - - - -
27/12:30am 21.6 W 2 5 1008.6 - 4.8 - - 10 - - - -
27/12:00am 21.9 NNW 3 4 1008.7 - 4.8 Recent precip. Cloudy 10 - - - -
 
Date/Time
EDT
Temp

°C
Wind Pressure Rain
since 9am
mm
Weather Cloud Vis
km
Sea
Height
m
Swell
Dir
 
Speed
knots
Gust
knots
hPa Trend Height
m
Period
s
Dir
26/11:30pm 21.9 N 3 3 1008.7 - 4.6 - Partly cloudy 10 - - - -
26/11:00pm 21.8 CALM 0 0 1008.8 - 4.6 - Partly cloudy 10 - - - -
26/10:30pm 21.9 ENE 3 4 1009.0 - 4.6 - Partly cloudy 10 - - - -
26/10:00pm 21.7 SSE 2 4 1009.1 - 4.6 - Partly cloudy 10 - - - -
26/09:30pm 21.8 WNW 1 4 1009.1 - 4.6 - - 10 - - - -
26/09:00pm 22.0 SW 5 5 1008.4 - 4.6 Recent precip. Mostly cloudy 10 - - - -
26/08:30pm 22.1 N 7 9 1007.6 - 4.6 - Partly cloudy 10 - - - -
26/08:00pm 22.2 NNE 7 8 1007.6 - 4.4 - Partly cloudy 10 - - - -
26/07:30pm 22.3 W 5 7 1008.7 - 3.2 - Partly cloudy 8 - - - -
26/07:00pm 22.4 NNW 4 5 1007.9 - 1.6 - Partly cloudy 10 - - - -
26/06:30pm 23.1 N 7 8 1007.5 - 0.6 - Partly cloudy 10 - - - -
26/06:00pm 24.2 N 8 11 1007.4 - 0.0 - - 10 - - - -
26/05:30pm 24.7 NNE 10 13 1007.2 - 0.0 - Cloudy 10 - - - -
26/05:00pm 24.9 NNE 9 14 1007.0 - 0.0 - Cloudy 10 - - - -
26/04:30pm 25.2 NE 9 13 1007.0 - 0.0 - Partly cloudy 10 - - - -
26/04:00pm 25.6 NE 11 16 1007.2 - 0.0 - - 10 - - - -
26/03:30pm 26.6 NE 11 14 1007.2 - 0.0 - - 10 - - - -
26/03:00pm 26.6 NE 11 15 1007.4 - 0.0 - - 10 - - - -
26/02:30pm 25.7 ENE 10 15 1007.8 - 0.0 - - 10 - - - -
26/02:00pm 26.0 ENE 10 13 1008.1 - 0.0 - - 10 - - - -
26/01:30pm 26.0 ENE 12 16 1008.3 - 0.0 - - 10 - - - -
26/01:00pm 25.9 ENE 11 15 1008.7 - 0.0 - - 10 - - - -
26/12:30pm 26.7 NE 9 12 1009.2 - 0.0 - - 10 - - - -
26/12:00pm 26.3 E 7 9 1009.4 - 0.0 - Mostly clear 10 - - - -
26/11:30am 25.8 NE 7 11 1009.8 - 0.0 - - 10 - - - -
26/11:00am 25.4 N 4 6 1009.9 - 0.0 - - 10 - - - -
26/10:30am 24.7 NE 4 8 1010.1 - 0.0 - - 10 - - - -
26/10:00am 23.9 N 4 6 1010.3 - 0.0 - - 10 - - - -
26/09:30am 22.7 N 2 4 1010.1 - 0.0 - - 10 - - - -
26/09:00am 22.1 NNW 4 5 1010.2 - 0.0 - Partly cloudy 10 - - - -
26/08:46am 21.2 WNW 4 6 1010.2 - 0.0 - Partly cloudy 10 - - - -
26/08:45am 21.2 WNW 4 6 1010.2 - 0.0 - Partly cloudy 10 - - - -
26/08:30am 20.9 NW 3 5 1010.2 - 0.0 - Partly cloudy 10 - - - -
26/08:27am 21.0 NNW 3 4 1010.1 - 0.0 - Partly cloudy 10 - - - -
26/08:26am 20.9 NNW 3 4 1010.1 - 0.0 - Partly cloudy 10 - - - -
26/08:00am 20.5 WNW 4 5 1010.1 - 0.0 - Partly cloudy 10 - - - -
26/07:30am 19.6 CALM 0 2 1010.0 - 0.0 - - 10 - - - -
26/07:00am 18.9 W 2 4 1009.9 - 0.0 - - 10 - - - -
26/06:36am 18.5 CALM 0 0 1009.7 - 0.0 - - 10 - - - -
26/06:30am 18.5 CALM 0 0 1009.6 - 0.0 - Partly cloudy 10 - - - -

Other Formats:

Comma delimited format used in spreadsheet applications
http://www.bom.gov.au/fwo/IDN60701/IDN60701.94786.axf

JavaScript Object Notation format (JSON) in row-major order
http://www.bom.gov.au/fwo/IDN60701/IDN60701.94786.json